sensor_id;sensor_type;location;lat;lon;timestamp;temperature;humidity
73665;DHT22;61964;52.052;4.474;2023-06-10T00:01:45;22.43;56.43
73665;DHT22;61964;52.052;4.474;2023-06-10T00:04:14;22.42;56.42
73665;DHT22;61964;52.052;4.474;2023-06-10T00:06:41;22.42;55.63
73665;DHT22;61964;52.052;4.474;2023-06-10T00:09:07;22.39;55.57
73665;DHT22;61964;52.052;4.474;2023-06-10T00:11:38;22.36;55.26
73665;DHT22;61964;52.052;4.474;2023-06-10T00:14:04;22.32;56.13
73665;DHT22;61964;52.052;4.474;2023-06-10T00:16:30;22.31;55.06
73665;DHT22;61964;52.052;4.474;2023-06-10T00:18:57;22.28;55.91
73665;DHT22;61964;52.052;4.474;2023-06-10T00:21:34;22.28;55.48
73665;DHT22;61964;52.052;4.474;2023-06-10T00:24:06;22.23;55.11
73665;DHT22;61964;52.052;4.474;2023-06-10T00:26:33;22.25;55.11
73665;DHT22;61964;52.052;4.474;2023-06-10T00:28:59;22.23;54.87
73665;DHT22;61964;52.052;4.474;2023-06-10T00:31:25;22.25;54.65
73665;DHT22;61964;52.052;4.474;2023-06-10T00:33:54;22.21;54.71
73665;DHT22;61964;52.052;4.474;2023-06-10T00:36:20;22.21;54.19
73665;DHT22;61964;52.052;4.474;2023-06-10T00:38:46;22.16;54.15
73665;DHT22;61964;52.052;4.474;2023-06-10T00:41:12;22.15;54.14
73665;DHT22;61964;52.052;4.474;2023-06-10T00:43:37;22.12;54.23
73665;DHT22;61964;52.052;4.474;2023-06-10T00:46:03;22.15;54.23
73665;DHT22;61964;52.052;4.474;2023-06-10T00:48:29;22.08;53.94
73665;DHT22;61964;52.052;4.474;2023-06-10T00:50:55;22.02;54.01
73665;DHT22;61964;52.052;4.474;2023-06-10T00:53:22;22.00;54.26
73665;DHT22;61964;52.052;4.474;2023-06-10T00:55:48;21.98;54.17
73665;DHT22;61964;52.052;4.474;2023-06-10T00:58:15;22.00;53.63
73665;DHT22;61964;52.052;4.474;2023-06-10T01:00:41;21.94;53.74
73665;DHT22;61964;52.052;4.474;2023-06-10T01:03:07;21.90;54.17
73665;DHT22;61964;52.052;4.474;2023-06-10T01:05:36;21.84;53.78
73665;DHT22;61964;52.052;4.474;2023-06-10T01:08:32;21.82;53.74
73665;DHT22;61964;52.052;4.474;2023-06-10T01:11:04;21.84;53.66
73665;DHT22;61964;52.052;4.474;2023-06-10T01:13:36;21.80;53.84
73665;DHT22;61964;52.052;4.474;2023-06-10T01:16:04;21.78;53.77
73665;DHT22;61964;52.052;4.474;2023-06-10T01:18:31;21.71;53.49
73665;DHT22;61964;52.052;4.474;2023-06-10T01:20:57;21.64;54.17
73665;DHT22;61964;52.052;4.474;2023-06-10T01:23:23;21.68;53.72
73665;DHT22;61964;52.052;4.474;2023-06-10T01:26:09;21.68;54.02
73665;DHT22;61964;52.052;4.474;2023-06-10T01:28:45;21.61;54.28
73665;DHT22;61964;52.052;4.474;2023-06-10T01:31:51;21.63;53.98
73665;DHT22;61964;52.052;4.474;2023-06-10T01:34:23;21.61;53.96
73665;DHT22;61964;52.052;4.474;2023-06-10T01:36:50;21.55;54.15
73665;DHT22;61964;52.052;4.474;2023-06-10T01:39:21;21.55;54.18
73665;DHT22;61964;52.052;4.474;2023-06-10T01:41:48;21.51;53.99
73665;DHT22;61964;52.052;4.474;2023-06-10T01:44:22;21.51;55.05
73665;DHT22;61964;52.052;4.474;2023-06-10T01:46:48;21.47;54.48
73665;DHT22;61964;52.052;4.474;2023-06-10T01:49:14;21.44;54.71
73665;DHT22;61964;52.052;4.474;2023-06-10T01:51:40;21.39;54.28
73665;DHT22;61964;52.052;4.474;2023-06-10T01:54:06;21.37;54.31
73665;DHT22;61964;52.052;4.474;2023-06-10T01:56:32;21.34;54.77
73665;DHT22;61964;52.052;4.474;2023-06-10T01:58:58;21.29;55.40
73665;DHT22;61964;52.052;4.474;2023-06-10T02:01:25;21.27;54.93
73665;DHT22;61964;52.052;4.474;2023-06-10T02:03:51;21.26;54.45
73665;DHT22;61964;52.052;4.474;2023-06-10T02:06:17;21.20;54.22
73665;DHT22;61964;52.052;4.474;2023-06-10T02:08:43;21.16;56.28
73665;DHT22;61964;52.052;4.474;2023-06-10T02:11:08;21.10;54.58
73665;DHT22;61964;52.052;4.474;2023-06-10T02:13:34;21.04;54.45
73665;DHT22;61964;52.052;4.474;2023-06-10T02:16:00;21.04;54.55
73665;DHT22;61964;52.052;4.474;2023-06-10T02:18:27;21.02;55.39
73665;DHT22;61964;52.052;4.474;2023-06-10T02:20:53;20.98;54.42
73665;DHT22;61964;52.052;4.474;2023-06-10T02:23:19;20.98;54.19
73665;DHT22;61964;52.052;4.474;2023-06-10T02:25:45;20.96;54.15
73665;DHT22;61964;52.052;4.474;2023-06-10T02:28:12;20.96;53.93
73665;DHT22;61964;52.052;4.474;2023-06-10T02:30:42;20.98;53.64
73665;DHT22;61964;52.052;4.474;2023-06-10T02:33:09;20.98;54.27
73665;DHT22;61964;52.052;4.474;2023-06-10T02:35:40;20.98;53.42
73665;DHT22;61964;52.052;4.474;2023-06-10T02:38:06;20.95;54.91
73665;DHT22;61964;52.052;4.474;2023-06-10T02:40:32;20.93;53.53
73665;DHT22;61964;52.052;4.474;2023-06-10T02:42:58;20.91;53.18
73665;DHT22;61964;52.052;4.474;2023-06-10T02:45:24;20.91;53.18
73665;DHT22;61964;52.052;4.474;2023-06-10T02:47:50;20.88;53.17
73665;DHT22;61964;52.052;4.474;2023-06-10T02:50:16;20.85;53.00
73665;DHT22;61964;52.052;4.474;2023-06-10T02:52:42;20.86;53.29
73665;DHT22;61964;52.052;4.474;2023-06-10T02:55:07;20.82;53.94
73665;DHT22;61964;52.052;4.474;2023-06-10T02:57:33;20.75;53.34
73665;DHT22;61964;52.052;4.474;2023-06-10T02:59:59;20.76;52.66
73665;DHT22;61964;52.052;4.474;2023-06-10T03:02:24;20.76;52.82
73665;DHT22;61964;52.052;4.474;2023-06-10T03:04:56;20.73;53.18
73665;DHT22;61964;52.052;4.474;2023-06-10T03:07:23;20.69;53.55
73665;DHT22;61964;52.052;4.474;2023-06-10T03:09:49;20.62;54.04
73665;DHT22;61964;52.052;4.474;2023-06-10T03:12:15;20.62;53.35
73665;DHT22;61964;52.052;4.474;2023-06-10T03:14:41;20.59;53.21
73665;DHT22;61964;52.052;4.474;2023-06-10T03:17:07;20.52;53.56
73665;DHT22;61964;52.052;4.474;2023-06-10T03:19:34;20.55;54.72
73665;DHT22;61964;52.052;4.474;2023-06-10T03:22:14;20.54;53.46
73665;DHT22;61964;52.052;4.474;2023-06-10T03:24:41;20.45;53.71
73665;DHT22;61964;52.052;4.474;2023-06-10T03:27:10;20.42;53.96
73665;DHT22;61964;52.052;4.474;2023-06-10T03:29:37;20.38;54.80
73665;DHT22;61964;52.052;4.474;2023-06-10T03:32:02;20.35;53.61
73665;DHT22;61964;52.052;4.474;2023-06-10T03:34:29;20.35;53.69
73665;DHT22;61964;52.052;4.474;2023-06-10T03:36:59;20.32;53.74
73665;DHT22;61964;52.052;4.474;2023-06-10T03:39:26;20.31;54.03
73665;DHT22;61964;52.052;4.474;2023-06-10T03:41:54;20.31;53.89
73665;DHT22;61964;52.052;4.474;2023-06-10T03:44:21;20.28;53.44
73665;DHT22;61964;52.052;4.474;2023-06-10T03:46:47;20.38;53.26
73665;DHT22;61964;52.052;4.474;2023-06-10T03:49:13;20.31;53.36
73665;DHT22;61964;52.052;4.474;2023-06-10T03:51:40;20.25;53.99
73665;DHT22;61964;52.052;4.474;2023-06-10T03:54:06;20.30;53.26
73665;DHT22;61964;52.052;4.474;2023-06-10T03:56:32;20.30;55.66
73665;DHT22;61964;52.052;4.474;2023-06-10T03:58:58;20.31;54.29
73665;DHT22;61964;52.052;4.474;2023-06-10T04:01:24;20.32;53.39
73665;DHT22;61964;52.052;4.474;2023-06-10T04:03:50;20.32;53.61
73665;DHT22;61964;52.052;4.474;2023-06-10T04:06:17;20.32;53.88
73665;DHT22;61964;52.052;4.474;2023-06-10T04:08:42;20.35;53.75
73665;DHT22;61964;52.052;4.474;2023-06-10T04:11:09;20.38;53.68
73665;DHT22;61964;52.052;4.474;2023-06-10T04:13:35;20.35;53.70
73665;DHT22;61964;52.052;4.474;2023-06-10T04:16:00;20.32;54.13
73665;DHT22;61964;52.052;4.474;2023-06-10T04:18:26;20.37;54.22
73665;DHT22;61964;52.052;4.474;2023-06-10T04:20:52;20.41;54.07
73665;DHT22;61964;52.052;4.474;2023-06-10T04:23:18;20.41;53.99
73665;DHT22;61964;52.052;4.474;2023-06-10T04:25:44;20.41;54.29
73665;DHT22;61964;52.052;4.474;2023-06-10T04:28:10;20.47;54.23
73665;DHT22;61964;52.052;4.474;2023-06-10T04:30:35;20.44;54.66
73665;DHT22;61964;52.052;4.474;2023-06-10T04:33:01;20.45;54.52
73665;DHT22;61964;52.052;4.474;2023-06-10T04:35:27;20.47;55.92
73665;DHT22;61964;52.052;4.474;2023-06-10T04:37:53;20.51;54.91
73665;DHT22;61964;52.052;4.474;2023-06-10T04:40:19;20.58;54.52
73665;DHT22;61964;52.052;4.474;2023-06-10T04:42:45;20.55;54.60
73665;DHT22;61964;52.052;4.474;2023-06-10T04:45:11;20.56;54.96
73665;DHT22;61964;52.052;4.474;2023-06-10T04:47:37;20.56;54.50
73665;DHT22;61964;52.052;4.474;2023-06-10T04:50:03;20.61;54.94
73665;DHT22;61964;52.052;4.474;2023-06-10T04:52:29;20.67;54.85
73665;DHT22;61964;52.052;4.474;2023-06-10T04:54:57;20.72;54.61
73665;DHT22;61964;52.052;4.474;2023-06-10T04:57:23;20.72;54.34
73665;DHT22;61964;52.052;4.474;2023-06-10T04:59:49;20.79;54.60
73665;DHT22;61964;52.052;4.474;2023-06-10T05:02:15;20.79;54.54
73665;DHT22;61964;52.052;4.474;2023-06-10T05:04:41;20.82;54.86
73665;DHT22;61964;52.052;4.474;2023-06-10T05:07:07;20.86;54.99
73665;DHT22;61964;52.052;4.474;2023-06-10T05:09:32;20.95;55.65
73665;DHT22;61964;52.052;4.474;2023-06-10T05:11:58;21.07;54.34
73665;DHT22;61964;52.052;4.474;2023-06-10T05:14:24;21.09;54.65
73665;DHT22;61964;52.052;4.474;2023-06-10T05:16:50;21.10;54.43
73665;DHT22;61964;52.052;4.474;2023-06-10T05:19:16;21.14;54.70
73665;DHT22;61964;52.052;4.474;2023-06-10T05:21:44;21.22;55.12
73665;DHT22;61964;52.052;4.474;2023-06-10T05:24:11;21.32;54.13
73665;DHT22;61964;52.052;4.474;2023-06-10T05:26:37;21.37;54.62
73665;DHT22;61964;52.052;4.474;2023-06-10T05:29:04;21.43;54.19
73665;DHT22;61964;52.052;4.474;2023-06-10T05:31:30;21.41;53.95
73665;DHT22;61964;52.052;4.474;2023-06-10T05:33:58;21.53;55.27
73665;DHT22;61964;52.052;4.474;2023-06-10T05:36:23;21.81;53.66
73665;DHT22;61964;52.052;4.474;2023-06-10T05:38:51;22.31;52.13
73665;DHT22;61964;52.052;4.474;2023-06-10T05:41:17;22.73;50.95
73665;DHT22;61964;52.052;4.474;2023-06-10T05:43:43;23.40;49.63
73665;DHT22;61964;52.052;4.474;2023-06-10T05:46:08;24.44;47.24
73665;DHT22;61964;52.052;4.474;2023-06-10T05:48:34;25.31;46.19
73665;DHT22;61964;52.052;4.474;2023-06-10T05:51:00;26.03;43.99
73665;DHT22;61964;52.052;4.474;2023-06-10T05:53:26;26.35;42.69
73665;DHT22;61964;52.052;4.474;2023-06-10T05:55:52;26.58;42.58
73665;DHT22;61964;52.052;4.474;2023-06-10T05:58:23;26.86;42.26
73665;DHT22;61964;52.052;4.474;2023-06-10T06:00:49;27.29;41.71
73665;DHT22;61964;52.052;4.474;2023-06-10T06:03:15;27.34;40.88
73665;DHT22;61964;52.052;4.474;2023-06-10T06:05:41;27.67;41.04
73665;DHT22;61964;52.052;4.474;2023-06-10T06:08:08;28.01;40.53
73665;DHT22;61964;52.052;4.474;2023-06-10T06:10:34;28.26;39.50
73665;DHT22;61964;52.052;4.474;2023-06-10T06:13:00;28.50;39.16
73665;DHT22;61964;52.052;4.474;2023-06-10T06:15:41;28.46;39.32
73665;DHT22;61964;52.052;4.474;2023-06-10T06:18:07;28.74;38.72
73665;DHT22;61964;52.052;4.474;2023-06-10T06:20:32;28.79;39.27
73665;DHT22;61964;52.052;4.474;2023-06-10T06:22:58;28.94;38.34
73665;DHT22;61964;52.052;4.474;2023-06-10T06:25:24;29.03;38.09
73665;DHT22;61964;52.052;4.474;2023-06-10T06:27:50;29.22;38.58
73665;DHT22;61964;52.052;4.474;2023-06-10T06:30:15;29.04;38.56
73665;DHT22;61964;52.052;4.474;2023-06-10T06:32:41;28.87;38.24
73665;DHT22;61964;52.052;4.474;2023-06-10T06:35:07;28.83;38.75
73665;DHT22;61964;52.052;4.474;2023-06-10T06:37:34;29.12;40.77
73665;DHT22;61964;52.052;4.474;2023-06-10T06:40:00;29.65;41.66
73665;DHT22;61964;52.052;4.474;2023-06-10T06:42:26;29.85;37.42
73665;DHT22;61964;52.052;4.474;2023-06-10T06:44:52;30.23;36.63
73665;DHT22;61964;52.052;4.474;2023-06-10T06:47:18;30.26;36.74
73665;DHT22;61964;52.052;4.474;2023-06-10T06:49:48;30.33;36.84
73665;DHT22;61964;52.052;4.474;2023-06-10T06:52:15;30.50;37.33
73665;DHT22;61964;52.052;4.474;2023-06-10T06:54:41;30.74;36.75
73665;DHT22;61964;52.052;4.474;2023-06-10T06:57:07;30.68;35.69
73665;DHT22;61964;52.052;4.474;2023-06-10T06:59:33;30.78;37.57
73665;DHT22;61964;52.052;4.474;2023-06-10T07:01:59;31.12;36.32
73665;DHT22;61964;52.052;4.474;2023-06-10T07:04:25;30.92;35.76
73665;DHT22;61964;52.052;4.474;2023-06-10T07:06:51;30.92;35.69
73665;DHT22;61964;52.052;4.474;2023-06-10T07:09:17;31.16;35.92
73665;DHT22;61964;52.052;4.474;2023-06-10T07:11:42;31.07;36.01
73665;DHT22;61964;52.052;4.474;2023-06-10T07:14:08;31.26;36.87
73665;DHT22;61964;52.052;4.474;2023-06-10T07:16:34;31.32;34.99
73665;DHT22;61964;52.052;4.474;2023-06-10T07:19:00;31.70;35.14
73665;DHT22;61964;52.052;4.474;2023-06-10T07:21:25;31.69;34.80
73665;DHT22;61964;52.052;4.474;2023-06-10T07:23:53;32.09;34.85
73665;DHT22;61964;52.052;4.474;2023-06-10T07:26:21;32.31;33.73
73665;DHT22;61964;52.052;4.474;2023-06-10T07:28:48;32.52;34.43
73665;DHT22;61964;52.052;4.474;2023-06-10T07:31:13;32.59;33.35
73665;DHT22;61964;52.052;4.474;2023-06-10T07:33:39;32.48;33.47
73665;DHT22;61964;52.052;4.474;2023-06-10T07:36:08;32.48;34.63
73665;DHT22;61964;52.052;4.474;2023-06-10T07:38:33;32.57;33.73
73665;DHT22;61964;52.052;4.474;2023-06-10T07:40:59;32.59;32.93
73665;DHT22;61964;52.052;4.474;2023-06-10T07:43:25;32.64;34.04
73665;DHT22;61964;52.052;4.474;2023-06-10T07:45:51;32.57;32.71
73665;DHT22;61964;52.052;4.474;2023-06-10T07:48:16;32.68;33.70
73665;DHT22;61964;52.052;4.474;2023-06-10T07:50:42;32.89;33.24
73665;DHT22;61964;52.052;4.474;2023-06-10T07:53:08;32.85;33.09
73665;DHT22;61964;52.052;4.474;2023-06-10T07:55:33;32.75;34.30
73665;DHT22;61964;52.052;4.474;2023-06-10T07:57:59;33.18;33.20
73665;DHT22;61964;52.052;4.474;2023-06-10T08:00:25;33.18;32.61
73665;DHT22;61964;52.052;4.474;2023-06-10T08:02:51;32.89;33.18
73665;DHT22;61964;52.052;4.474;2023-06-10T08:05:17;32.90;33.76
73665;DHT22;61964;52.052;4.474;2023-06-10T08:07:43;33.15;32.49
73665;DHT22;61964;52.052;4.474;2023-06-10T08:10:08;33.18;32.96
73665;DHT22;61964;52.052;4.474;2023-06-10T08:12:34;33.06;34.41
73665;DHT22;61964;52.052;4.474;2023-06-10T08:15:01;33.18;33.48
73665;DHT22;61964;52.052;4.474;2023-06-10T08:17:30;33.40;33.86
73665;DHT22;61964;52.052;4.474;2023-06-10T08:19:57;33.60;33.13
73665;DHT22;61964;52.052;4.474;2023-06-10T08:22:23;33.46;33.01
73665;DHT22;61964;52.052;4.474;2023-06-10T08:24:49;33.15;33.96
73665;DHT22;61964;52.052;4.474;2023-06-10T08:27:14;33.08;34.17
73665;DHT22;61964;52.052;4.474;2023-06-10T08:29:40;33.22;33.50
73665;DHT22;61964;52.052;4.474;2023-06-10T08:32:06;33.13;34.29
73665;DHT22;61964;52.052;4.474;2023-06-10T08:34:35;33.40;33.93
73665;DHT22;61964;52.052;4.474;2023-06-10T08:37:13;33.33;32.97
73665;DHT22;61964;52.052;4.474;2023-06-10T08:39:39;33.70;33.45
73665;DHT22;61964;52.052;4.474;2023-06-10T08:42:21;33.76;32.83
73665;DHT22;61964;52.052;4.474;2023-06-10T08:44:53;34.04;33.53
73665;DHT22;61964;52.052;4.474;2023-06-10T08:47:23;33.96;32.75
73665;DHT22;61964;52.052;4.474;2023-06-10T08:49:50;33.97;33.29
73665;DHT22;61964;52.052;4.474;2023-06-10T08:52:19;34.31;33.04
73665;DHT22;61964;52.052;4.474;2023-06-10T08:55:03;34.60;31.98
73665;DHT22;61964;52.052;4.474;2023-06-10T08:57:30;34.69;32.87
73665;DHT22;61964;52.052;4.474;2023-06-10T08:59:57;34.73;32.11
73665;DHT22;61964;52.052;4.474;2023-06-10T09:02:27;34.93;32.76
73665;DHT22;61964;52.052;4.474;2023-06-10T09:04:56;35.08;31.09
73665;DHT22;61964;52.052;4.474;2023-06-10T09:07:22;35.29;31.75
73665;DHT22;61964;52.052;4.474;2023-06-10T09:09:49;35.20;30.75
73665;DHT22;61964;52.052;4.474;2023-06-10T09:12:15;35.13;31.32
73665;DHT22;61964;52.052;4.474;2023-06-10T09:14:53;34.95;30.70
73665;DHT22;61964;52.052;4.474;2023-06-10T09:17:18;35.11;32.43
73665;DHT22;61964;52.052;4.474;2023-06-10T09:19:44;35.18;32.21
73665;DHT22;61964;52.052;4.474;2023-06-10T09:22:11;35.41;31.15
73665;DHT22;61964;52.052;4.474;2023-06-10T09:24:37;35.40;31.24
73665;DHT22;61964;52.052;4.474;2023-06-10T09:27:24;35.64;30.71
73665;DHT22;61964;52.052;4.474;2023-06-10T09:30:10;35.89;31.36
73665;DHT22;61964;52.052;4.474;2023-06-10T09:32:49;36.01;31.71
73665;DHT22;61964;52.052;4.474;2023-06-10T09:35:15;36.32;29.59
73665;DHT22;61964;52.052;4.474;2023-06-10T09:37:44;36.11;29.70
73665;DHT22;61964;52.052;4.474;2023-06-10T09:40:11;35.67;29.45
73665;DHT22;61964;52.052;4.474;2023-06-10T09:42:38;34.90;30.42
73665;DHT22;61964;52.052;4.474;2023-06-10T09:45:06;34.59;31.50
73665;DHT22;61964;52.052;4.474;2023-06-10T09:47:33;35.06;31.14
73665;DHT22;61964;52.052;4.474;2023-06-10T09:49:58;35.40;31.61
73665;DHT22;61964;52.052;4.474;2023-06-10T09:52:26;35.70;30.54
73665;DHT22;61964;52.052;4.474;2023-06-10T09:54:53;35.50;31.13
73665;DHT22;61964;52.052;4.474;2023-06-10T09:57:21;35.54;30.50
73665;DHT22;61964;52.052;4.474;2023-06-10T09:59:47;35.14;31.42
73665;DHT22;61964;52.052;4.474;2023-06-10T10:02:18;35.27;31.43
73665;DHT22;61964;52.052;4.474;2023-06-10T10:04:44;35.27;31.50
73665;DHT22;61964;52.052;4.474;2023-06-10T10:07:11;35.61;30.88
73665;DHT22;61964;52.052;4.474;2023-06-10T10:09:38;35.70;30.53
73665;DHT22;61964;52.052;4.474;2023-06-10T10:12:13;35.47;30.48
73665;DHT22;61964;52.052;4.474;2023-06-10T10:14:47;35.30;31.04
73665;DHT22;61964;52.052;4.474;2023-06-10T10:17:15;35.33;31.37
73665;DHT22;61964;52.052;4.474;2023-06-10T10:19:48;35.13;30.68
73665;DHT22;61964;52.052;4.474;2023-06-10T10:22:25;35.00;30.64
73665;DHT22;61964;52.052;4.474;2023-06-10T10:25:02;35.10;30.58
73665;DHT22;61964;52.052;4.474;2023-06-10T10:27:36;35.21;30.86
73665;DHT22;61964;52.052;4.474;2023-06-10T10:30:05;35.67;31.90
73665;DHT22;61964;52.052;4.474;2023-06-10T10:35:36;36.06;29.51
73665;DHT22;61964;52.052;4.474;2023-06-10T10:38:03;35.62;31.51
73665;DHT22;61964;52.052;4.474;2023-06-10T10:40:32;35.30;31.10
73665;DHT22;61964;52.052;4.474;2023-06-10T10:42:59;34.90;30.44
73665;DHT22;61964;52.052;4.474;2023-06-10T10:45:28;34.82;29.60
73665;DHT22;61964;52.052;4.474;2023-06-10T10:47:55;34.59;32.67
73665;DHT22;61964;52.052;4.474;2023-06-10T10:50:22;34.60;32.54
73665;DHT22;61964;52.052;4.474;2023-06-10T10:53:08;34.63;29.82
73665;DHT22;61964;52.052;4.474;2023-06-10T10:55:34;34.60;30.40
73665;DHT22;61964;52.052;4.474;2023-06-10T10:58:23;34.99;30.38
73665;DHT22;61964;52.052;4.474;2023-06-10T11:00:49;35.08;29.75
73665;DHT22;61964;52.052;4.474;2023-06-10T11:03:16;34.80;30.66
73665;DHT22;61964;52.052;4.474;2023-06-10T11:05:45;34.95;30.45
73665;DHT22;61964;52.052;4.474;2023-06-10T11:08:15;34.95;30.97
73665;DHT22;61964;52.052;4.474;2023-06-10T11:10:51;35.16;30.10
73665;DHT22;61964;52.052;4.474;2023-06-10T11:13:20;35.08;29.88
73665;DHT22;61964;52.052;4.474;2023-06-10T11:15:48;35.26;29.50
73665;DHT22;61964;52.052;4.474;2023-06-10T11:18:41;35.50;29.32
73665;DHT22;61964;52.052;4.474;2023-06-10T11:21:07;35.64;28.90
73665;DHT22;61964;52.052;4.474;2023-06-10T11:23:34;35.57;28.58
73665;DHT22;61964;52.052;4.474;2023-06-10T11:26:32;35.14;28.95
73665;DHT22;61964;52.052;4.474;2023-06-10T11:29:19;35.07;30.47
73665;DHT22;61964;52.052;4.474;2023-06-10T11:31:50;34.95;29.18
73665;DHT22;61964;52.052;4.474;2023-06-10T11:34:28;34.59;30.50
73665;DHT22;61964;52.052;4.474;2023-06-10T11:36:55;34.59;32.30
73665;DHT22;61964;52.052;4.474;2023-06-10T11:39:22;35.11;30.72
73665;DHT22;61964;52.052;4.474;2023-06-10T11:41:50;35.23;29.16
73665;DHT22;61964;52.052;4.474;2023-06-10T11:44:22;34.90;29.26
73665;DHT22;61964;52.052;4.474;2023-06-10T11:46:56;34.89;29.98
73665;DHT22;61964;52.052;4.474;2023-06-10T11:49:29;34.87;29.59
73665;DHT22;61964;52.052;4.474;2023-06-10T11:52:04;34.90;29.50
73665;DHT22;61964;52.052;4.474;2023-06-10T11:54:31;34.90;29.10
73665;DHT22;61964;52.052;4.474;2023-06-10T11:57:21;35.20;29.71
73665;DHT22;61964;52.052;4.474;2023-06-10T11:59:47;35.29;28.47
73665;DHT22;61964;52.052;4.474;2023-06-10T12:02:30;35.43;28.42
73665;DHT22;61964;52.052;4.474;2023-06-10T12:05:15;35.41;28.51
73665;DHT22;61964;52.052;4.474;2023-06-10T12:08:07;35.18;28.75
73665;DHT22;61964;52.052;4.474;2023-06-10T12:10:40;35.06;28.64
73665;DHT22;61964;52.052;4.474;2023-06-10T12:13:08;34.86;28.53
73665;DHT22;61964;52.052;4.474;2023-06-10T12:15:34;34.75;28.88
73665;DHT22;61964;52.052;4.474;2023-06-10T12:18:01;34.75;30.23
73665;DHT22;61964;52.052;4.474;2023-06-10T12:20:29;34.56;29.18
73665;DHT22;61964;52.052;4.474;2023-06-10T12:22:55;34.09;29.09
73665;DHT22;61964;52.052;4.474;2023-06-10T12:25:28;33.94;31.39
73665;DHT22;61964;52.052;4.474;2023-06-10T12:27:56;33.87;29.59
73665;DHT22;61964;52.052;4.474;2023-06-10T12:30:24;33.53;31.39
73665;DHT22;61964;52.052;4.474;2023-06-10T12:32:52;33.46;29.76
73665;DHT22;61964;52.052;4.474;2023-06-10T12:35:20;33.54;31.32
73665;DHT22;61964;52.052;4.474;2023-06-10T12:38:04;33.64;32.43
73665;DHT22;61964;52.052;4.474;2023-06-10T12:40:37;33.49;30.28
73665;DHT22;61964;52.052;4.474;2023-06-10T12:43:04;33.10;30.40
73665;DHT22;61964;52.052;4.474;2023-06-10T12:45:33;33.05;30.72
73665;DHT22;61964;52.052;4.474;2023-06-10T12:48:17;32.86;29.22
73665;DHT22;61964;52.052;4.474;2023-06-10T12:50:43;32.79;31.39
73665;DHT22;61964;52.052;4.474;2023-06-10T12:53:11;32.58;30.48
73665;DHT22;61964;52.052;4.474;2023-06-10T12:55:38;32.49;31.41
73665;DHT22;61964;52.052;4.474;2023-06-10T12:58:04;32.68;30.08
73665;DHT22;61964;52.052;4.474;2023-06-10T13:00:30;32.86;27.88
73665;DHT22;61964;52.052;4.474;2023-06-10T13:02:57;33.05;28.87
73665;DHT22;61964;52.052;4.474;2023-06-10T13:05:23;33.16;29.37
73665;DHT22;61964;52.052;4.474;2023-06-10T13:07:49;33.22;29.08
73665;DHT22;61964;52.052;4.474;2023-06-10T13:10:18;33.30;29.91
73665;DHT22;61964;52.052;4.474;2023-06-10T13:15:26;33.20;29.92
73665;DHT22;61964;52.052;4.474;2023-06-10T13:17:52;33.09;29.32
73665;DHT22;61964;52.052;4.474;2023-06-10T13:20:19;33.03;32.02
73665;DHT22;61964;52.052;4.474;2023-06-10T13:22:46;32.80;29.76
73665;DHT22;61964;52.052;4.474;2023-06-10T13:25:13;32.85;29.07
73665;DHT22;61964;52.052;4.474;2023-06-10T13:27:39;32.86;29.22
73665;DHT22;61964;52.052;4.474;2023-06-10T13:30:06;33.05;28.92
73665;DHT22;61964;52.052;4.474;2023-06-10T13:32:33;33.08;29.17
73665;DHT22;61964;52.052;4.474;2023-06-10T13:34:59;33.03;28.63
73665;DHT22;61964;52.052;4.474;2023-06-10T13:37:24;33.00;29.22
73665;DHT22;61964;52.052;4.474;2023-06-10T13:39:50;32.89;30.95
73665;DHT22;61964;52.052;4.474;2023-06-10T13:42:17;32.78;29.04
73665;DHT22;61964;52.052;4.474;2023-06-10T13:44:50;32.86;29.21
73665;DHT22;61964;52.052;4.474;2023-06-10T13:47:16;32.94;30.12
73665;DHT22;61964;52.052;4.474;2023-06-10T13:49:43;32.95;29.20
73665;DHT22;61964;52.052;4.474;2023-06-10T13:52:09;32.80;29.39
73665;DHT22;61964;52.052;4.474;2023-06-10T13:54:35;32.68;29.55
73665;DHT22;61964;52.052;4.474;2023-06-10T13:57:03;32.82;29.34
73665;DHT22;61964;52.052;4.474;2023-06-10T13:59:29;32.80;28.47
73665;DHT22;61964;52.052;4.474;2023-06-10T14:02:01;32.68;29.29
73665;DHT22;61964;52.052;4.474;2023-06-10T14:04:27;32.71;29.03
73665;DHT22;61964;52.052;4.474;2023-06-10T14:06:53;32.17;29.04
73665;DHT22;61964;52.052;4.474;2023-06-10T14:09:18;31.76;30.13
73665;DHT22;61964;52.052;4.474;2023-06-10T14:11:44;31.35;30.60
73665;DHT22;61964;52.052;4.474;2023-06-10T14:14:10;31.43;30.04
73665;DHT22;61964;52.052;4.474;2023-06-10T14:16:36;31.67;30.21
73665;DHT22;61964;52.052;4.474;2023-06-10T14:19:02;31.97;30.74
73665;DHT22;61964;52.052;4.474;2023-06-10T14:21:28;32.04;29.83
73665;DHT22;61964;52.052;4.474;2023-06-10T14:29:16;31.62;32.42
73665;DHT22;61964;52.052;4.474;2023-06-10T14:31:43;31.86;31.69
73665;DHT22;61964;52.052;4.474;2023-06-10T14:34:09;31.90;31.94
73665;DHT22;61964;52.052;4.474;2023-06-10T14:36:40;32.06;32.17
73665;DHT22;61964;52.052;4.474;2023-06-10T14:39:06;32.24;31.33
73665;DHT22;61964;52.052;4.474;2023-06-10T14:41:32;32.37;31.63
73665;DHT22;61964;52.052;4.474;2023-06-10T14:43:57;32.32;30.17
73665;DHT22;61964;52.052;4.474;2023-06-10T14:46:23;32.20;31.12
73665;DHT22;61964;52.052;4.474;2023-06-10T14:48:55;32.17;30.76
73665;DHT22;61964;52.052;4.474;2023-06-10T14:51:20;32.27;31.22
73665;DHT22;61964;52.052;4.474;2023-06-10T14:53:46;32.18;32.07
73665;DHT22;61964;52.052;4.474;2023-06-10T14:56:12;32.21;31.89
73665;DHT22;61964;52.052;4.474;2023-06-10T14:58:38;32.18;31.02
73665;DHT22;61964;52.052;4.474;2023-06-10T15:01:03;32.11;31.82
73665;DHT22;61964;52.052;4.474;2023-06-10T15:03:29;32.01;31.82
73665;DHT22;61964;52.052;4.474;2023-06-10T15:05:55;31.84;30.35
73665;DHT22;61964;52.052;4.474;2023-06-10T15:08:21;31.76;31.63
73665;DHT22;61964;52.052;4.474;2023-06-10T15:10:46;31.70;31.04
73665;DHT22;61964;52.052;4.474;2023-06-10T15:13:13;31.58;32.38
73665;DHT22;61964;52.052;4.474;2023-06-10T15:15:39;31.39;31.38
73665;DHT22;61964;52.052;4.474;2023-06-10T15:18:05;31.25;32.40
73665;DHT22;61964;52.052;4.474;2023-06-10T15:20:31;31.16;32.27
73665;DHT22;61964;52.052;4.474;2023-06-10T15:22:56;31.26;32.31
73665;DHT22;61964;52.052;4.474;2023-06-10T15:25:22;31.45;33.12
73665;DHT22;61964;52.052;4.474;2023-06-10T15:27:48;31.60;31.56
73665;DHT22;61964;52.052;4.474;2023-06-10T15:30:14;31.56;30.66
73665;DHT22;61964;52.052;4.474;2023-06-10T15:32:39;31.29;31.10
73665;DHT22;61964;52.052;4.474;2023-06-10T15:35:05;31.12;31.49
73665;DHT22;61964;52.052;4.474;2023-06-10T15:37:31;31.11;36.14
73665;DHT22;61964;52.052;4.474;2023-06-10T15:39:57;31.21;32.32
73665;DHT22;61964;52.052;4.474;2023-06-10T15:42:22;31.09;31.69
73665;DHT22;61964;52.052;4.474;2023-06-10T15:44:49;31.01;32.41
73665;DHT22;61964;52.052;4.474;2023-06-10T15:47:15;31.08;35.21